Time;durP1;ratioP1;P1;durP2;ratioP2;P2;SDS_P1;SDS_P2;PMS_P1;PMS_P2;Temp;Humidity;BMP_temperature;BMP_pressure;BME280_temperature;BME280_humidity;BME280_pressure;Samples;Min_cycle;Max_cycle;Signal;HPM_P1;HPM_P2
2021/09/01 00:02:46;;;;;;;1.35;0.80;;;;;;;20.62;59.18;99765.69;2441054;81;25684;-76
2021/09/01 00:06:07;;;;;;;0.70;0.65;;;;;;;20.60;59.30;99772.83;2440954;81;31378;-76
2021/09/01 00:09:27;;;;;;;2.72;0.80;;;;;;;20.58;59.39;99775.95;2401124;80;25633;-76
2021/09/01 00:12:48;;;;;;;1.98;0.98;;;;;;;20.38;59.57;99748.20;2349461;84;25674;-75
2021/09/01 00:16:25;;;;;;;1.37;0.68;;;;;;;20.38;59.57;99748.20;2399105;82;31397;-77
2021/09/01 00:19:32;;;;;;;2.65;0.72;;;;;;;20.49;59.59;99773.95;2395613;82;25648;-78
2021/09/01 00:22:54;;;;;;;0.75;0.75;;;;;;;20.49;59.65;99773.95;2398330;82;25671;-76
2021/09/01 00:26:18;;;;;;;1.72;0.98;;;;;;;20.51;59.69;99779.23;2348860;83;25678;-76
2021/09/01 00:29:39;;;;;;;1.92;1.25;;;;;;;20.51;59.69;99769.95;2398572;82;25533;-80
2021/09/01 00:33:00;;;;;;;3.33;0.98;;;;;;;20.48;59.69;99772.19;2398960;82;25760;-80
2021/09/01 00:36:21;;;;;;;1.10;1.00;;;;;;;20.46;59.75;99774.48;2398651;82;25707;-76
2021/09/01 00:39:42;;;;;;;1.42;1.10;;;;;;;20.42;59.82;99771.06;2349487;84;25741;-77
2021/09/01 00:43:03;;;;;;;2.98;1.30;;;;;;;20.41;59.89;99782.99;2398724;82;25145;-76
2021/09/01 00:46:28;;;;;;;1.50;1.10;;;;;;;20.43;59.96;99783.84;2398838;82;25173;-76
2021/09/01 00:49:51;;;;;;;3.10;1.65;;;;;;;20.41;59.92;99790.48;2399832;82;25684;-81
2021/09/01 00:53:14;;;;;;;1.40;1.10;;;;;;;20.42;59.97;99784.30;2405201;82;25657;-76
2021/09/01 00:56:35;;;;;;;4.30;1.30;;;;;;;20.43;60.00;99787.80;2405323;82;25661;-76
2021/09/01 00:59:56;;;;;;;1.72;1.17;;;;;;;20.41;59.99;99790.94;2405756;82;25693;-76
2021/09/01 01:03:17;;;;;;;1.27;1.02;;;;;;;20.38;60.01;99792.34;2405943;82;25640;-76
2021/09/01 01:06:44;;;;;;;1.42;1.32;;;;;;;20.37;60.06;99798.55;2399689;81;25598;-80
2021/09/01 01:14:09;;;;;;;2.58;1.00;;;;;;;20.36;60.09;99802.98;2267422;86;26255;-81
2021/09/01 01:18:17;;;;;;;4.55;1.07;;;;;;;20.34;60.20;99806.56;2270986;84;30942;-76
2021/09/01 01:21:59;;;;;;;0.98;0.72;;;;;;;20.31;60.19;99798.24;2267595;86;26016;-77
2021/09/01 01:25:42;;;;;;;0.90;0.68;;;;;;;20.31;60.21;99810.61;2270269;86;26070;-76
2021/09/01 01:29:42;;;;;;;1.42;0.88;;;;;;;20.27;60.28;99813.80;2267046;86;25735;-75
2021/09/01 01:33:19;;;;;;;1.32;0.80;;;;;;;20.28;60.34;99819.07;2200409;89;25682;-75
2021/09/01 01:36:54;;;;;;;0.60;0.60;;;;;;;20.24;60.29;99817.37;2193642;89;25825;-76
2021/09/01 01:40:59;;;;;;;1.10;1.00;;;;;;;20.21;60.36;99814.80;2192676;89;26035;-75
2021/09/01 01:44:21;;;;;;;1.25;0.88;;;;;;;20.20;60.42;99814.41;2197824;89;25768;-76
2021/09/01 01:47:42;;;;;;;1.37;0.80;;;;;;;20.16;60.49;99818.50;2192836;89;25669;-76
2021/09/01 01:51:10;;;;;;;0.78;0.62;;;;;;;20.16;60.50;99822.01;2236026;86;25427;-75
2021/09/01 01:54:40;;;;;;;3.58;0.50;;;;;;;20.16;60.52;99825.11;2261548;85;26095;-74
2021/09/01 01:58:13;;;;;;;0.90;0.72;;;;;;;20.15;60.48;99828.22;2266547;85;25774;-77
2021/09/01 02:02:30;;;;;;;0.80;0.68;;;;;;;20.14;60.53;99830.88;2264871;86;25732;-79
2021/09/01 02:06:02;;;;;;;0.90;0.60;;;;;;;20.12;60.55;99826.10;2257425;86;25678;-80
2021/09/01 02:21:29;;;;;;;1.55;0.90;;;;;;;20.00;60.72;99829.44;2525169;76;31389;-81
2021/09/01 02:24:52;;;;;;;1.82;1.10;;;;;;;19.95;60.72;99837.09;2464214;78;25706;-76
2021/09/01 02:28:32;;;;;;;1.25;0.93;;;;;;;19.91;60.79;99836.30;2460660;79;25977;-79
2021/09/01 02:32:11;;;;;;;3.12;1.40;;;;;;;19.90;60.85;99843.78;2445939;79;25959;-75
2021/09/01 02:35:50;;;;;;;1.75;1.05;;;;;;;19.91;60.87;99839.36;2446527;79;30344;-76
2021/09/01 02:39:53;;;;;;;4.08;1.12;;;;;;;19.90;60.88;99838.50;2353048;82;25668;-79
2021/09/01 02:43:36;;;;;;;1.30;0.72;;;;;;;19.89;60.94;99842.06;2285876;85;25731;-77
2021/09/01 02:56:11;;;;;;;0.98;0.70;;;;;;;19.80;61.08;99858.13;2248643;84;26547;-79
2021/09/01 02:59:50;;;;;;;0.50;0.50;;;;;;;19.76;61.10;99851.17;2298281;84;25832;-76
2021/09/01 03:03:33;;;;;;;1.00;0.77;;;;;;;19.74;61.14;99857.84;2300428;84;25862;-81
2021/09/01 03:06:59;;;;;;;0.65;0.50;;;;;;;19.74;61.18;99860.48;2228106;84;25472;-81
2021/09/01 03:10:41;;;;;;;1.25;0.90;;;;;;;19.72;61.28;99871.53;2221854;87;25870;-76
2021/09/01 03:14:36;;;;;;;2.05;1.07;;;;;;;19.73;61.30;99867.98;2218051;87;26174;-81
2021/09/01 03:22:19;;;;;;;1.85;1.00;;;;;;;19.72;61.27;99875.95;2385051;81;25810;-76
2021/09/01 03:26:13;;;;;;;2.92;1.90;;;;;;;19.71;61.28;99879.06;2383008;81;25865;-81
2021/09/01 03:30:24;;;;;;;2.95;1.50;;;;;;;19.68;61.34;99879.13;2290305;84;25608;-76
2021/09/01 03:34:00;;;;;;;2.17;1.65;;;;;;;19.68;61.37;99883.55;2422582;79;25711;-77
2021/09/01 03:38:28;;;;;;;3.20;2.05;;;;;;;19.64;61.40;99885.81;2411028;80;25700;-80
2021/09/01 03:42:02;;;;;;;2.52;2.27;;;;;;;19.62;61.42;99901.70;2333964;83;25995;-75
2021/09/01 03:46:22;;;;;;;5.50;2.10;;;;;;;19.57;61.48;99906.19;2321263;82;27077;-79
2021/09/01 03:50:44;;;;;;;1.92;1.70;;;;;;;19.57;61.46;99903.55;2394334;80;26220;-76
2021/09/01 03:54:42;;;;;;;1.90;1.70;;;;;;;19.57;61.54;99908.41;2422794;80;25662;-75
2021/09/01 03:58:11;;;;;;;3.15;1.65;;;;;;;19.59;61.50;99905.72;2422849;80;26045;-75
2021/09/01 04:01:35;;;;;;;2.60;1.30;;;;;;;19.62;61.49;99917.56;2419697;79;25782;-76
2021/09/01 04:09:50;;;;;;;1.95;1.22;;;;;;;19.63;61.46;99919.33;2421325;79;26238;-80
2021/09/01 04:17:53;;;;;;;1.57;1.25;;;;;;;19.59;61.50;99933.48;2340418;83;25905;-75
2021/09/01 04:21:45;;;;;;;1.85;1.40;;;;;;;19.56;61.54;99942.80;2350214;81;25946;-76
2021/09/01 04:30:21;;;;;;;2.58;1.30;;;;;;;19.54;61.61;99953.42;2342830;83;26075;-76
2021/09/01 04:33:41;;;;;;;1.70;1.00;;;;;;;19.52;61.57;99951.25;2291227;85;25559;-76
2021/09/01 04:37:55;;;;;;;2.25;1.40;;;;;;;19.53;61.61;99967.52;2273595;85;31401;-76
2021/09/01 04:41:15;;;;;;;1.70;1.45;;;;;;;19.53;61.61;99964.01;2376647;80;25689;-75
2021/09/01 04:44:43;;;;;;;1.85;1.70;;;;;;;19.52;61.63;99969.75;2399985;80;31386;-76
2021/09/01 04:48:07;;;;;;;2.60;1.42;;;;;;;19.50;61.62;99970.22;2346033;82;26140;-80
2021/09/01 04:52:20;;;;;;;3.92;2.05;;;;;;;19.51;61.64;99980.38;2361223;82;25833;-77
2021/09/01 04:55:59;;;;;;;2.27;2.08;;;;;;;19.46;61.61;99976.47;2343590;82;25720;-82
2021/09/01 04:59:57;;;;;;;3.27;2.25;;;;;;;19.48;61.65;99985.27;2349461;82;26563;-80
2021/09/01 05:04:12;;;;;;;2.47;2.27;;;;;;;19.46;61.67;99980.89;2291095;84;25911;-76
2021/09/01 05:12:15;;;;;;;2.70;2.50;;;;;;;19.47;61.66;99990.14;2265419;84;26359;-81
2021/09/01 05:15:40;;;;;;;4.15;2.40;;;;;;;19.49;61.64;99990.09;2323824;79;25643;-78
2021/09/01 05:24:06;;;;;;;3.87;3.12;;;;;;;19.49;61.67;99994.06;2427747;79;25732;-83
2021/09/01 05:27:32;;;;;;;3.35;2.98;;;;;;;19.53;61.59;99998.38;2467877;78;25687;-82
2021/09/01 05:30:54;;;;;;;3.83;3.42;;;;;;;19.54;61.63;99996.15;2496879;78;25461;-80
2021/09/01 05:34:59;;;;;;;5.47;3.33;;;;;;;19.56;61.63;100003.16;2515288;76;25937;-77
2021/09/01 05:38:22;;;;;;;4.45;3.65;;;;;;;19.58;61.61;99997.86;2488081;78;25636;-82
2021/09/01 05:41:46;;;;;;;5.40;3.52;;;;;;;19.63;61.53;100003.95;2485185;78;25493;-80
2021/09/01 05:45:11;;;;;;;3.45;3.15;;;;;;;19.66;61.50;100014.47;2488765;78;25677;-78
2021/09/01 05:48:53;;;;;;;4.92;3.47;;;;;;;19.65;61.43;100017.16;2486165;77;25978;-77
2021/09/01 05:52:36;;;;;;;6.53;3.30;;;;;;;19.64;61.49;100025.55;2489652;78;25684;-83
2021/09/01 05:56:09;;;;;;;7.22;3.65;;;;;;;19.65;61.50;100031.25;2494129;77;26050;-77
2021/09/01 06:00:24;;;;;;;4.60;4.12;;;;;;;19.69;61.44;100036.89;2478460;78;25563;-81
2021/09/01 06:03:59;;;;;;;;;;;;;;;19.69;61.43;100038.21;2486368;79;25694;-77
2021/09/01 06:08:10;;;;;;;4.65;4.25;;;;;;;19.70;61.46;100036.44;2492224;78;25632;-78
2021/09/01 06:16:04;;;;;;;5.17;3.15;;;;;;;19.83;61.33;100041.91;2497465;78;25647;-78
2021/09/01 06:19:53;;;;;;;4.35;3.50;;;;;;;19.85;61.31;100042.77;2484993;79;25928;-77
2021/09/01 06:23:35;;;;;;;8.88;3.98;;;;;;;19.87;61.21;100042.26;2489967;78;25516;-78
2021/09/01 06:31:36;;;;;;;6.62;4.30;;;;;;;20.02;61.01;100053.87;2412409;75;25672;-82
2021/09/01 06:35:40;;;;;;;7.22;4.10;;;;;;;20.07;60.86;100060.84;2465632;77;26217;-74
2021/09/01 06:39:23;;;;;;;6.55;3.47;;;;;;;20.05;60.80;100063.53;2507836;77;25760;-74
2021/09/01 06:43:05;;;;;;;4.67;3.75;;;;;;;20.04;60.80;100067.05;2508040;77;25769;-81
2021/09/01 06:47:09;;;;;;;5.00;4.50;;;;;;;20.10;60.86;100076.20;2484917;77;25717;-80
2021/09/01 06:50:59;;;;;;;8.08;4.00;;;;;;;20.25;60.77;100079.00;2481345;78;25664;-83
2021/09/01 06:54:20;;;;;;;4.90;4.35;;;;;;;20.72;60.72;100075.34;2488508;77;25605;-82
2021/09/01 06:58:19;;;;;;;8.13;4.22;;;;;;;21.70;60.06;100080.02;2499743;77;26133;-84
2021/09/01 07:02:07;;;;;;;7.53;4.28;;;;;;;22.64;59.16;100084.84;2472968;77;25711;-83
2021/09/01 07:05:31;;;;;;;6.72;4.42;;;;;;;23.77;57.53;100088.28;2425179;80;26270;-81
2021/09/01 07:08:56;;;;;;;5.12;4.62;;;;;;;23.92;56.23;100098.83;2468692;79;26019;-82
2021/09/01 07:12:43;;;;;;;5.28;4.10;;;;;;;23.51;56.14;100099.79;2447016;78;25931;-81
2021/09/01 07:16:43;;;;;;;5.30;4.60;;;;;;;23.17;56.24;100117.34;2456125;79;25789;-82
2021/09/01 07:20:10;;;;;;;6.03;4.55;;;;;;;22.91;56.41;100120.78;2434793;78;25765;-82
2021/09/01 07:23:55;;;;;;;7.70;4.75;;;;;;;22.73;56.74;100125.75;2440054;78;26332;-81
2021/09/01 07:27:23;;;;;;;5.83;4.80;;;;;;;22.82;56.85;100133.45;2444228;78;25547;-81
2021/09/01 07:31:13;;;;;;;10.25;5.58;;;;;;;23.24;56.79;100127.72;2454011;76;25548;-81
2021/09/01 07:34:59;;;;;;;5.45;4.65;;;;;;;24.82;56.42;100131.45;2468661;77;26502;-78
2021/09/01 07:38:53;;;;;;;8.83;5.30;;;;;;;27.14;53.38;100136.95;2463058;77;25599;-77
2021/09/01 07:42:26;;;;;;;4.58;4.17;;;;;;;28.70;51.57;100148.10;2450735;78;26064;-81
2021/09/01 07:45:50;;;;;;;5.03;4.58;;;;;;;29.99;49.24;100151.42;2461757;78;26297;-78
2021/09/01 07:49:10;;;;;;;8.48;4.92;;;;;;;30.12;47.79;100150.59;2497540;77;26058;-81
2021/09/01 07:53:04;;;;;;;8.30;4.78;;;;;;;30.47;47.09;100159.66;2465988;79;25842;-76
2021/09/01 08:01:07;;;;;;;8.88;5.00;;;;;;;31.19;45.87;100164.50;2328869;82;26008;-78
2021/09/01 08:04:49;;;;;;;11.85;5.62;;;;;;;31.14;43.65;100168.45;2339578;83;25648;-78
2021/09/01 08:08:16;;;;;;;11.22;6.28;;;;;;;30.83;42.59;100172.27;2229695;86;25785;-75
2021/09/01 08:11:37;;;;;;;9.98;5.45;;;;;;;30.60;42.20;100159.75;2253350;85;25869;-77
2021/09/01 08:14:58;;;;;;;7.65;5.08;;;;;;;29.99;42.54;100171.11;2270999;85;25719;-76
2021/09/01 08:18:19;;;;;;;8.90;4.97;;;;;;;30.30;42.69;100169.26;2253248;85;26114;-75
2021/09/01 08:21:47;;;;;;;5.37;4.87;;;;;;;31.43;41.83;100170.61;2253487;86;25758;-75
2021/09/01 08:25:11;;;;;;;6.33;5.00;;;;;;;31.91;41.08;100177.72;2265723;85;26069;-80
2021/09/01 08:28:32;;;;;;;6.55;4.75;;;;;;;31.23;41.04;100177.28;2274974;83;25366;-76
2021/09/01 08:31:53;;;;;;;4.80;4.33;;;;;;;30.50;41.31;100189.05;2378974;82;25401;-79
2021/09/01 08:35:14;;;;;;;7.17;5.12;;;;;;;29.96;41.78;100182.04;2370994;81;25954;-79
2021/09/01 08:38:35;;;;;;;5.90;4.30;;;;;;;29.30;42.29;100192.61;2382871;82;25739;-76
2021/09/01 08:41:56;;;;;;;8.90;4.65;;;;;;;28.69;42.92;100201.38;2375320;82;25680;-78
2021/09/01 08:45:19;;;;;;;6.62;4.62;;;;;;;28.11;43.46;100190.53;2439927;78;26020;-75
2021/09/01 08:48:41;;;;;;;4.40;3.98;;;;;;;27.59;44.03;100198.53;2501062;78;25703;-75
2021/09/01 08:52:02;;;;;;;7.83;4.78;;;;;;;27.17;44.59;100212.19;2508415;77;25771;-76
2021/09/01 08:55:23;;;;;;;4.75;4.25;;;;;;;26.82;45.04;100213.36;2494459;78;25772;-79
2021/09/01 08:58:45;;;;;;;4.25;3.85;;;;;;;26.48;45.50;100210.88;2445446;80;25748;-75
2021/09/01 09:02:07;;;;;;;3.95;3.55;;;;;;;26.24;45.90;100215.95;2449209;80;25794;-76
2021/09/01 09:05:49;;;;;;;4.40;4.10;;;;;;;27.65;45.86;100218.80;2476483;77;25683;-75
2021/09/01 09:09:14;;;;;;;6.70;3.67;;;;;;;29.82;44.29;100220.48;2440392;80;26104;-77
2021/09/01 09:12:57;;;;;;;3.67;3.25;;;;;;;32.04;42.18;100227.63;2435956;79;25574;-80
2021/09/01 09:16:50;;;;;;;12.43;3.50;;;;;;;32.97;40.43;100228.34;2444738;79;25418;-78
2021/09/01 09:24:43;;;;;;;3.80;2.85;;;;;;;31.91;35.30;100231.64;2374547;81;26119;-78
2021/09/01 09:28:07;;;;;;;4.37;2.90;;;;;;;31.18;34.04;100231.91;2368073;81;26039;-80
2021/09/01 09:31:48;;;;;;;2.98;2.77;;;;;;;31.82;34.31;100240.31;2359890;82;25688;-78
2021/09/01 09:35:58;;;;;;;3.27;2.98;;;;;;;32.44;32.83;100240.61;2299564;84;25794;-78
2021/09/01 09:40:06;;;;;;;3.95;2.67;;;;;;;32.40;31.63;100229.59;2280807;84;25733;-78
2021/09/01 09:43:44;;;;;;;3.55;2.92;;;;;;;31.48;31.89;100235.33;2278172;84;26100;-82
2021/09/01 09:47:42;;;;;;;5.65;3.42;;;;;;;30.27;33.30;100233.98;2276466;84;26222;-76
2021/09/01 09:51:38;;;;;;;4.20;3.12;;;;;;;29.92;34.22;100242.32;2280203;84;26442;-79
2021/09/01 09:55:25;;;;;;;5.30;3.92;;;;;;;29.37;35.11;100245.48;2286869;82;25727;-78
2021/09/01 09:59:03;;;;;;;3.75;3.45;;;;;;;29.62;35.62;100244.97;2246281;84;25985;-78
2021/09/01 10:02:39;;;;;;;12.07;3.55;;;;;;;29.51;35.78;100241.53;2310949;83;26177;-78
2021/09/01 10:06:17;;;;;;;4.42;3.58;;;;;;;29.76;35.43;100240.14;2315422;82;26095;-80
2021/09/01 10:09:54;;;;;;;4.55;3.27;;;;;;;29.57;35.41;100237.16;2152555;88;25989;-79
2021/09/01 10:13:15;;;;;;;5.97;3.45;;;;;;;28.99;35.80;100247.58;2269506;85;25697;-79
2021/09/01 10:16:59;;;;;;;5.37;3.87;;;;;;;29.13;35.96;100256.66;2313034;83;26335;-78
2021/09/01 10:20:44;;;;;;;3.60;2.92;;;;;;;30.07;35.61;100252.62;2323423;84;25582;-79
2021/09/01 10:24:54;;;;;;;4.55;4.15;;;;;;;31.13;34.58;100254.25;2317634;82;26490;-79
2021/09/01 10:28:45;;;;;;;9.00;4.28;;;;;;;31.12;34.84;100253.84;2346607;82;25597;-81
2021/09/01 10:32:52;;;;;;;4.28;2.67;;;;;;;31.15;35.18;100253.65;2259825;84;25982;-85
2021/09/01 10:36:45;;;;;;;;;;;;;;;31.26;34.12;100261.44;2260654;84;26229;-77
2021/09/01 10:40:54;;;;;;;4.22;2.17;;;;;;;31.67;32.80;100248.95;2302724;83;25837;-79
2021/09/01 10:44:49;;;;;;;4.25;3.08;;;;;;;31.90;32.09;100263.14;2322937;83;26352;-82
2021/09/01 10:48:22;;;;;;;5.00;2.98;;;;;;;31.18;33.55;100270.48;2327820;82;25944;-81
2021/09/01 10:52:08;;;;;;;11.30;2.53;;;;;;;30.29;33.29;100259.84;2306584;82;25846;-77
2021/09/01 10:56:06;;;;;;;2.62;2.42;;;;;;;30.68;33.01;100273.17;2270193;85;25874;-77
2021/09/01 11:00:34;;;;;;;4.28;1.87;;;;;;;31.20;31.69;100263.66;2276066;85;25670;-78
2021/09/01 11:04:08;;;;;;;3.70;2.30;;;;;;;31.68;31.11;100266.84;2294620;83;25904;-78
2021/09/01 11:07:32;;;;;;;4.20;1.70;;;;;;;32.10;30.59;100263.63;2363319;81;26426;-77
2021/09/01 11:11:08;;;;;;;4.92;2.47;;;;;;;31.86;30.45;100273.72;2466723;77;26136;-78
2021/09/01 11:15:01;;;;;;;2.52;2.02;;;;;;;31.32;30.79;100274.11;2451777;77;25895;-77
2021/09/01 11:18:27;;;;;;;2.17;1.80;;;;;;;31.47;30.69;100269.98;2455106;79;26143;-77
2021/09/01 11:22:17;;;;;;;2.60;2.40;;;;;;;31.85;30.68;100280.06;2479176;78;26749;-79
2021/09/01 11:26:04;;;;;;;4.30;2.05;;;;;;;31.94;30.44;100279.97;2474695;78;26502;-78
2021/09/01 11:34:25;;;;;;;2.35;1.70;;;;;;;31.64;30.44;100276.09;2473190;77;26349;-78
2021/09/01 11:38:17;;;;;;;4.85;2.30;;;;;;;31.49;30.83;100290.97;2439459;79;26004;-78
2021/09/01 11:41:45;;;;;;;3.98;2.00;;;;;;;31.84;30.84;100290.47;2375548;80;26549;-78
2021/09/01 11:49:17;;;;;;;3.87;1.55;;;;;;;32.09;30.65;100282.97;2391661;80;25537;-78
2021/09/01 11:52:38;;;;;;;6.53;1.32;;;;;;;32.15;30.33;100298.73;2376763;81;25886;-78
2021/09/01 11:56:00;;;;;;;4.17;1.22;;;;;;;32.14;30.06;100292.97;2375056;81;25929;-77
2021/09/01 11:59:25;;;;;;;1.60;1.05;;;;;;;31.98;29.59;100295.83;2291965;82;25917;-78
2021/09/01 12:03:03;;;;;;;2.52;1.20;;;;;;;31.94;29.58;100292.11;2290556;83;25743;-76
2021/09/01 12:10:36;;;;;;;3.98;3.47;;;;;;;32.21;29.04;100299.67;2290243;84;26260;-77
2021/09/01 12:14:29;;;;;;;5.37;1.10;;;;;;;32.24;28.60;100295.91;2301345;83;26130;-78
2021/09/01 12:18:15;;;;;;;5.00;1.77;;;;;;;32.34;28.18;100301.06;2177010;88;26303;-77
2021/09/01 12:22:06;;;;;;;5.08;1.50;;;;;;;32.38;27.66;100297.66;2215208;86;26544;-77
2021/09/01 12:25:30;;;;;;;4.85;1.47;;;;;;;31.82;29.11;100300.48;2222808;85;25958;-77
2021/09/01 12:30:18;;;;;;;1.40;1.00;;;;;;;31.20;29.28;100294.63;2219305;86;26137;-77
2021/09/01 12:33:44;;;;;;;4.22;1.35;;;;;;;30.73;29.75;100307.38;2202263;86;26102;-78
2021/09/01 12:37:30;;;;;;;1.98;1.30;;;;;;;30.37;29.98;100293.47;2212551;86;25780;-76
2021/09/01 12:41:02;;;;;;;2.70;1.57;;;;;;;30.03;30.36;100307.53;2210741;87;25990;-78
2021/09/01 12:49:27;;;;;;;7.10;1.50;;;;;;;29.83;31.09;100300.15;2022833;95;25687;-78
2021/09/01 12:56:50;;;;;;;4.25;1.05;;;;;;;30.02;31.20;100297.27;2070680;93;25801;-78
2021/09/01 13:00:32;;;;;;;1.80;1.25;;;;;;;29.73;31.13;100298.95;2075642;93;26232;-78
2021/09/01 13:04:00;;;;;;;2.62;1.02;;;;;;;29.55;31.66;100301.32;2072602;93;25962;-78
2021/09/01 13:07:54;;;;;;;2.08;1.10;;;;;;;29.64;31.63;100303.52;2080280;93;25861;-77
2021/09/01 13:11:26;;;;;;;3.30;0.80;;;;;;;29.77;31.52;100295.64;2020773;95;25798;-77
2021/09/01 13:15:06;;;;;;;1.87;1.17;;;;;;;29.82;31.67;100297.56;2007582;96;25780;-78
2021/09/01 13:18:30;;;;;;;2.42;1.35;;;;;;;29.89;31.27;100298.94;2072093;92;26090;-78
2021/09/01 13:21:53;;;;;;;3.67;1.57;;;;;;;29.86;31.41;100298.63;2109789;90;26133;-78
2021/09/01 13:25:15;;;;;;;2.45;1.20;;;;;;;29.99;32.27;100301.96;2173009;87;25787;-76
2021/09/01 13:28:46;;;;;;;3.75;1.57;;;;;;;30.07;33.49;100292.50;2215232;86;25769;-79
2021/09/01 13:32:29;;;;;;;2.30;1.22;;;;;;;30.00;33.88;100295.14;2226917;86;25823;-77
2021/09/01 13:35:52;;;;;;;2.40;1.10;;;;;;;29.78;34.00;100298.70;2226860;86;25743;-78
2021/09/01 13:39:38;;;;;;;5.25;1.40;;;;;;;29.15;33.78;100302.19;2225126;86;25887;-78
2021/09/01 13:43:08;;;;;;;1.90;0.90;;;;;;;28.91;33.79;100307.05;2212497;87;25769;-77
2021/09/01 13:46:52;;;;;;;4.55;1.25;;;;;;;28.70;34.06;100296.52;2220244;86;25667;-78
2021/09/01 13:50:19;;;;;;;6.25;1.30;;;;;;;28.76;34.38;100297.15;2216497;87;26381;-77
2021/09/01 13:53:42;;;;;;;2.15;1.10;;;;;;;28.70;34.58;100307.23;2226265;87;25727;-79
2021/09/01 13:57:37;;;;;;;4.45;1.12;;;;;;;28.66;34.63;100306.16;2220833;86;26173;-77
2021/09/01 14:01:09;;;;;;;2.22;0.98;;;;;;;28.58;34.77;100294.46;2223467;86;34763;-79
2021/09/01 14:04:33;;;;;;;6.65;1.30;;;;;;;28.64;34.97;100299.51;2222237;87;26023;-79
2021/09/01 14:08:14;;;;;;;3.25;0.80;;;;;;;28.59;34.96;100298.04;2280066;85;26005;-78
2021/09/01 14:11:44;;;;;;;5.58;0.80;;;;;;;28.48;34.82;100311.98;2297549;81;26424;-78
2021/09/01 14:15:34;;;;;;;3.50;0.75;;;;;;;28.18;35.09;100317.95;2298572;84;25760;-79
2021/09/01 14:19:18;;;;;;;2.47;0.72;;;;;;;27.89;35.30;100314.52;2222462;86;26038;-79
2021/09/01 14:23:07;;;;;;;9.18;0.80;;;;;;;27.55;35.60;100319.66;2220715;87;25861;-79
2021/09/01 14:26:28;;;;;;;3.72;0.98;;;;;;;27.18;35.99;100319.66;2225232;87;26170;-78
2021/09/01 14:33:56;;;;;;;7.90;0.90;;;;;;;26.80;36.76;100308.87;2128490;91;26276;-77
2021/09/01 14:37:24;;;;;;;3.35;0.80;;;;;;;26.60;37.11;100309.27;2188184;89;26272;-79
2021/09/01 14:40:48;;;;;;;1.77;0.85;;;;;;;26.37;37.34;100303.55;2212719;88;25681;-79
2021/09/01 14:44:22;;;;;;;1.55;0.85;;;;;;;26.24;37.41;100310.35;2189840;88;25832;-78
2021/09/01 14:48:00;;;;;;;6.75;0.80;;;;;;;26.14;37.64;100306.33;2199440;88;25737;-79
2021/09/01 14:51:56;;;;;;;0.87;0.70;;;;;;;26.13;37.86;100300.12;2214132;87;25589;-79
2021/09/01 14:55:54;;;;;;;2.15;0.68;;;;;;;26.12;37.30;100309.08;2208915;84;26198;-78
2021/09/01 14:59:30;;;;;;;2.83;0.60;;;;;;;26.02;37.52;100318.84;2239451;85;26171;-78
2021/09/01 15:07:11;;;;;;;2.10;1.37;;;;;;;25.93;37.58;100317.92;2237468;86;25834;-80
2021/09/01 15:11:03;;;;;;;4.33;0.72;;;;;;;25.87;37.77;100310.54;2228864;86;26174;-79
2021/09/01 15:18:30;;;;;;;1.10;0.53;;;;;;;25.75;37.79;100323.48;2162862;88;25695;-79
2021/09/01 15:21:54;;;;;;;2.85;0.80;;;;;;;25.58;37.64;100313.47;2194912;87;26254;-79
2021/09/01 15:26:01;;;;;;;2.80;1.20;;;;;;;25.43;37.87;100319.82;2186966;87;26480;-77
2021/09/01 15:29:57;;;;;;;2.70;0.93;;;;;;;25.32;37.79;100313.17;2137260;89;25995;-79
2021/09/01 15:34:18;;;;;;;4.00;0.73;;;;;;;25.18;38.17;100308.37;2139414;88;25804;-79
2021/09/01 15:37:50;;;;;;;1.92;0.98;;;;;;;25.00;38.10;100321.01;2235687;79;26401;-78
2021/09/01 15:41:14;;;;;;;1.45;1.00;;;;;;;24.78;38.58;100316.94;2418018;79;26039;-79
2021/09/01 15:44:39;;;;;;;2.45;0.90;;;;;;;24.65;38.71;100313.37;2428376;77;26298;-78
2021/09/01 15:48:14;;;;;;;2.65;0.90;;;;;;;24.56;39.08;100314.15;2452409;78;25741;-78
2021/09/01 15:55:24;;;;;;;2.10;0.70;;;;;;;24.35;39.46;100315.73;2290455;83;26172;-77
2021/09/01 15:58:54;;;;;;;3.80;1.27;;;;;;;24.24;39.54;100312.98;2288689;82;26291;-77
2021/09/01 16:02:53;;;;;;;3.92;1.00;;;;;;;24.10;39.66;100316.58;2304596;84;26231;-77
2021/09/01 16:06:33;;;;;;;1.95;0.70;;;;;;;24.01;39.87;100310.22;2181624;87;26321;-77
2021/09/01 16:09:54;;;;;;;4.08;1.10;;;;;;;23.93;39.92;100318.46;2177226;88;25821;-78
2021/09/01 16:13:23;;;;;;;4.17;1.10;;;;;;;23.76;39.97;100320.80;2187964;88;26508;-78
2021/09/01 16:17:27;;;;;;;1.32;0.80;;;;;;;23.68;40.08;100319.69;2172422;87;26397;-77
2021/09/01 16:21:07;;;;;;;1.32;0.80;;;;;;;23.59;40.30;100314.64;2107304;89;25863;-78
2021/09/01 16:24:35;;;;;;;1.60;0.98;;;;;;;23.49;40.53;100323.36;2087264;90;26256;-78
2021/09/01 16:28:05;;;;;;;7.97;1.27;;;;;;;23.40;40.78;100330.28;2106844;90;32497;-77
2021/09/01 16:31:50;;;;;;;5.83;0.90;;;;;;;23.29;40.93;100320.44;2130395;86;26104;-78
2021/09/01 16:35:38;;;;;;;4.33;1.07;;;;;;;23.16;41.36;100324.37;2165346;88;25894;-77
2021/09/01 16:39:41;;;;;;;1.17;1.00;;;;;;;23.08;41.47;100324.14;2166278;88;26143;-78
2021/09/01 16:43:15;;;;;;;4.80;0.72;;;;;;;23.00;41.69;100327.45;2289161;83;25951;-77
2021/09/01 16:46:36;;;;;;;4.05;1.42;;;;;;;22.91;42.11;100332.98;2320960;82;25822;-77
2021/09/01 16:50:21;;;;;;;3.75;1.80;;;;;;;22.84;42.22;100338.93;2299062;83;25614;-77
2021/09/01 16:53:55;;;;;;;3.83;1.32;;;;;;;22.75;42.49;100336.55;2285537;83;26199;-77
2021/09/01 16:57:54;;;;;;;4.10;1.02;;;;;;;22.65;42.58;100336.38;2360585;79;26194;-77
2021/09/01 17:13:50;;;;;;;3.12;1.10;;;;;;;22.48;43.41;100354.09;2374999;81;26135;-79
2021/09/01 17:17:29;;;;;;;2.33;1.80;;;;;;;22.47;43.59;100356.78;2399000;79;26516;-78
2021/09/01 17:20:54;;;;;;;4.45;1.22;;;;;;;22.46;43.90;100359.03;2403016;79;25859;-75
2021/09/01 17:24:30;;;;;;;4.10;1.20;;;;;;;22.40;43.96;100360.05;2403231;80;25852;-77
2021/09/01 17:28:10;;;;;;;2.62;1.42;;;;;;;22.33;44.13;100361.11;2401586;80;25734;-81
2021/09/01 17:32:01;;;;;;;5.17;1.20;;;;;;;22.24;44.62;100365.31;2400864;80;26095;-81
2021/09/01 17:35:57;;;;;;;3.92;1.20;;;;;;;22.39;44.76;100371.59;2373884;79;26398;-82
2021/09/01 17:39:34;;;;;;;1.70;1.30;;;;;;;22.58;45.17;100386.63;2314361;83;26144;-82
2021/09/01 17:43:14;;;;;;;3.52;1.00;;;;;;;22.69;45.33;100379.69;2349460;82;25694;-81
2021/09/01 17:46:50;;;;;;;1.70;0.90;;;;;;;22.74;45.41;100385.28;2311217;83;26432;-81
2021/09/01 17:50:35;;;;;;;4.85;1.35;;;;;;;22.80;45.56;100381.59;2291289;84;26222;-81
2021/09/01 17:54:05;;;;;;;2.42;1.10;;;;;;;22.80;46.14;100380.27;2290837;84;25732;-81
2021/09/01 17:57:38;;;;;;;1.85;1.20;;;;;;;22.78;46.34;100385.64;2303434;84;25917;-82
2021/09/01 18:01:33;;;;;;;1.77;1.02;;;;;;;22.74;46.44;100395.91;2289403;84;25849;-82
2021/09/01 18:05:04;;;;;;;1.20;1.00;;;;;;;22.71;46.65;100403.96;2243940;85;25718;-79
2021/09/01 18:08:25;;;;;;;1.00;0.90;;;;;;;22.68;46.80;100413.80;2213314;86;26153;-81
2021/09/01 18:16:26;;;;;;;3.65;1.15;;;;;;;22.60;46.95;100421.98;2330225;82;26115;-80
2021/09/01 18:19:48;;;;;;;1.40;1.17;;;;;;;22.54;47.10;100425.65;2376322;79;25771;-80
2021/09/01 18:23:14;;;;;;;2.22;1.67;;;;;;;22.51;47.19;100423.09;2412378;79;25740;-78
2021/09/01 18:26:46;;;;;;;1.70;1.10;;;;;;;22.49;47.31;100430.68;2405974;80;25736;-81
2021/09/01 18:30:47;;;;;;;1.30;1.17;;;;;;;22.47;47.46;100434.69;2427213;79;25680;-81
2021/09/01 18:34:30;;;;;;;1.22;1.12;;;;;;;22.42;47.55;100431.28;2438462;78;25644;-80
2021/09/01 18:37:56;;;;;;;1.90;1.07;;;;;;;22.42;47.63;100435.27;2427107;78;25893;-83
2021/09/01 18:41:40;;;;;;;1.67;1.07;;;;;;;22.36;47.72;100440.72;2424934;78;26268;-81
2021/09/01 18:45:23;;;;;;;3.17;1.20;;;;;;;22.33;47.69;100448.30;2436087;78;26146;-82
2021/09/01 18:49:36;;;;;;;2.20;1.42;;;;;;;22.26;47.80;100436.08;2439110;79;25731;-81
2021/09/01 18:53:27;;;;;;;1.50;1.12;;;;;;;22.25;47.87;100450.28;2450941;79;26148;-81
2021/09/01 19:00:30;;;;;;;1.52;1.32;;;;;;;22.19;47.87;100444.23;2350110;81;25711;-80
2021/09/01 19:04:05;;;;;;;1.65;1.30;;;;;;;22.14;48.05;100445.19;2343984;81;25757;-81
2021/09/01 19:08:10;;;;;;;1.42;1.22;;;;;;;22.10;48.13;100446.14;2328626;82;25667;-81